Wetterdaten: Woche 16.01.17 - 22.01.17 (KW3)
Datum Zeit Temperatur Luftfeuchte Luftdruck Niederschlag Windrichtung Sonnenschein Solar Wind
16.01.2017 00:00 -7,8 C 93 % 1021,3 hPa 0,0 l/m N 0,00 h 0 W/m 0,1 km/h (0 Bft)
16.01.2017 01:00 -7,5 C 94 % 1021,1 hPa 0,0 l/m N 0,00 h 0 W/m 0,0 km/h (0 Bft)
16.01.2017 02:00 -7,1 C 94 % 1021,1 hPa 0,0 l/m N 0,00 h 0 W/m 0,0 km/h (0 Bft)
16.01.2017 03:00 -6,6 C 95 % 1021,1 hPa 0,0 l/m N 0,00 h 0 W/m 0,0 km/h (0 Bft)
16.01.2017 04:00 -6,2 C 95 % 1021,0 hPa 0,0 l/m N 0,00 h 0 W/m 0,3 km/h (0 Bft)
16.01.2017 05:00 -6,2 C 95 % 1021,1 hPa 0,0 l/m N 0,00 h 0 W/m 0,0 km/h (0 Bft)
16.01.2017 06:00 -6,4 C 95 % 1021,2 hPa 0,4 l/m N 0,00 h 0 W/m 0,0 km/h (0 Bft)
16.01.2017 07:00 -5,6 C 96 % 1021,5 hPa 0,6 l/m N 0,00 h 0 W/m 0,0 km/h (0 Bft)
16.01.2017 08:00 -5,1 C 96 % 1022,1 hPa 0,6 l/m N 0,00 h 9 W/m 0,0 km/h (0 Bft)
16.01.2017 09:00 -4,3 C 96 % 1022,5 hPa 0,0 l/m N 0,00 h 31 W/m 0,0 km/h (0 Bft)
16.01.2017 10:00 -3,5 C 96 % 1022,8 hPa 0,0 l/m NW 0,00 h 31 W/m 1,7 km/h (1 Bft)
16.01.2017 11:00 -2,8 C 94 % 1022,8 hPa 0,0 l/m O-NO 0,00 h 89 W/m 4,8 km/h (1 Bft)
16.01.2017 12:00 -2,3 C 91 % 1022,5 hPa 0,0 l/m O-NO 0,00 h 143 W/m 5,9 km/h (2 Bft)
16.01.2017 13:00 -2,3 C 89 % 1022,3 hPa 0,0 l/m O-NO 0,00 h 135 W/m 7,1 km/h (2 Bft)
16.01.2017 14:00 -2,7 C 89 % 1022,4 hPa 0,0 l/m NO 0,33 h 154 W/m 13,3 km/h (3 Bft)
16.01.2017 15:00 -2,9 C 88 % 1022,9 hPa 0,0 l/m NO 0,17 h 89 W/m 12,9 km/h (3 Bft)
16.01.2017 16:00 -3,5 C 89 % 1023,5 hPa 0,0 l/m NO 0,08 h 12 W/m 11,0 km/h (2 Bft)
16.01.2017 17:00 -4,1 C 90 % 1024,0 hPa 0,0 l/m N-NO 0,00 h 0 W/m 6,4 km/h (2 Bft)
16.01.2017 18:00 -5,1 C 89 % 1024,4 hPa 0,0 l/m N-NO 0,00 h 0 W/m 4,4 km/h (1 Bft)
16.01.2017 19:00 -5,7 C 90 % 1024,9 hPa 0,0 l/m N-NO 0,00 h 0 W/m 7,8 km/h (2 Bft)
16.01.2017 20:00 -5,3 C 90 % 1025,4 hPa 0,0 l/m NO 0,00 h 0 W/m 9,9 km/h (2 Bft)
16.01.2017 21:00 -5,2 C 91 % 1025,8 hPa 0,0 l/m N-NO 0,00 h 0 W/m 10,6 km/h (2 Bft)
16.01.2017 22:00 -5,2 C 92 % 1025,9 hPa 0,0 l/m N-NO 0,00 h 0 W/m 13,2 km/h (3 Bft)
16.01.2017 23:00 -5,2 C 93 % 1026,1 hPa 0,0 l/m NO 0,00 h 0 W/m 14,9 km/h (3 Bft)
17.01.2017 00:00 -5,0 C 93 % 1026,2 hPa 0,0 l/m NO 0,00 h 0 W/m 15,7 km/h (3 Bft)
17.01.2017 01:00 -4,8 C 94 % 1026,3 hPa 0,0 l/m NO 0,00 h 0 W/m 15,7 km/h (3 Bft)
17.01.2017 02:00 -4,7 C 94 % 1026,4 hPa 0,0 l/m NO 0,00 h 0 W/m 15,4 km/h (3 Bft)
17.01.2017 03:00 -4,7 C 94 % 1026,8 hPa 0,0 l/m NO 0,00 h 0 W/m 19,7 km/h (3 Bft)
17.01.2017 04:00 -5,1 C 93 % 1027,2 hPa 0,0 l/m O-NO 0,00 h 0 W/m 20,9 km/h (4 Bft)
17.01.2017 05:00 -5,5 C 93 % 1027,6 hPa 0,0 l/m O-NO 0,00 h 0 W/m 23,4 km/h (4 Bft)
17.01.2017 06:00 -6,3 C 93 % 1028,3 hPa 0,0 l/m NO 0,00 h 0 W/m 23,6 km/h (4 Bft)
17.01.2017 07:00 -6,7 C 92 % 1028,9 hPa 0,0 l/m NO 0,00 h 0 W/m 19,3 km/h (3 Bft)
17.01.2017 08:00 -7,1 C 92 % 1029,5 hPa 0,0 l/m NO 0,42 h 33 W/m 19,0 km/h (3 Bft)
17.01.2017 09:00 -7,2 C 92 % 1029,9 hPa 0,0 l/m O-NO 0,17 h 76 W/m 21,8 km/h (4 Bft)
17.01.2017 10:00 -7,0 C 91 % 1030,3 hPa 0,0 l/m NO 0,00 h 117 W/m 21,3 km/h (4 Bft)
17.01.2017 11:00 -6,4 C 91 % 1030,5 hPa 0,0 l/m O-NO 0,08 h 142 W/m 17,7 km/h (3 Bft)
17.01.2017 12:00 -5,7 C 89 % 1030,3 hPa 0,0 l/m NO 0,75 h 236 W/m 20,0 km/h (4 Bft)
17.01.2017 13:00 -5,5 C 88 % 1030,0 hPa 0,0 l/m NO 0,00 h 145 W/m 19,4 km/h (3 Bft)
17.01.2017 14:00 -5,3 C 88 % 1029,7 hPa 0,0 l/m NO 0,33 h 140 W/m 20,0 km/h (4 Bft)
17.01.2017 15:00 -5,3 C 89 % 1029,9 hPa 0,0 l/m O-NO 0,00 h 58 W/m 20,0 km/h (4 Bft)
17.01.2017 16:00 -5,2 C 88 % 1030,2 hPa 0,0 l/m O-NO 0,00 h 14 W/m 22,8 km/h (4 Bft)
17.01.2017 17:00 -5,2 C 87 % 1030,6 hPa 0,0 l/m O-NO 0,00 h 0 W/m 22,6 km/h (4 Bft)
17.01.2017 18:00 -5,3 C 87 % 1031,0 hPa 0,0 l/m O-NO 0,00 h 0 W/m 24,8 km/h (4 Bft)
17.01.2017 19:00 -5,5 C 87 % 1031,3 hPa 0,0 l/m NO 0,00 h 0 W/m 22,2 km/h (4 Bft)
17.01.2017 20:00 -5,8 C 87 % 1031,5 hPa 0,0 l/m O-NO 0,00 h 0 W/m 21,7 km/h (4 Bft)
17.01.2017 21:00 -5,9 C 88 % 1031,5 hPa 0,0 l/m O-NO 0,00 h 0 W/m 23,4 km/h (4 Bft)
17.01.2017 22:00 -5,9 C 88 % 1031,7 hPa 0,0 l/m O-NO 0,00 h 0 W/m 27,2 km/h (4 Bft)
17.01.2017 23:00 -6,2 C 88 % 1031,7 hPa 0,0 l/m O-NO 0,00 h 0 W/m 26,1 km/h (4 Bft)
18.01.2017 00:00 -6,3 C 88 % 1031,7 hPa 0,0 l/m O-NO 0,00 h 0 W/m 24,5 km/h (4 Bft)
18.01.2017 01:00 -6,4 C 88 % 1031,8 hPa 0,0 l/m O-NO 0,00 h 0 W/m 28,8 km/h (5 Bft)
18.01.2017 02:00 -6,6 C 88 % 1031,8 hPa 0,0 l/m NO 0,00 h 0 W/m 29,1 km/h (5 Bft)
18.01.2017 03:00 -6,7 C 88 % 1031,8 hPa 0,0 l/m O-NO 0,00 h 0 W/m 27,2 km/h (4 Bft)
18.01.2017 04:00 -6,6 C 88 % 1031,7 hPa 0,0 l/m O-NO 0,00 h 0 W/m 21,8 km/h (4 Bft)
18.01.2017 05:00 -6,3 C 88 % 1031,6 hPa 0,0 l/m O-NO 0,00 h 0 W/m 22,2 km/h (4 Bft)
18.01.2017 06:00 -6,4 C 87 % 1031,8 hPa 0,0 l/m O-NO 0,00 h 0 W/m 21,7 km/h (4 Bft)
18.01.2017 07:00 -6,4 C 87 % 1032,0 hPa 0,0 l/m O-NO 0,00 h 0 W/m 24,1 km/h (4 Bft)
18.01.2017 08:00 -6,4 C 87 % 1032,4 hPa 0,0 l/m O-NO 0,00 h 18 W/m 23,7 km/h (4 Bft)
18.01.2017 09:00 -6,2 C 87 % 1032,8 hPa 0,0 l/m O-NO 0,00 h 57 W/m 25,6 km/h (4 Bft)
18.01.2017 10:00 -5,8 C 87 % 1033,3 hPa 0,0 l/m O 0,00 h 91 W/m 26,8 km/h (4 Bft)
18.01.2017 11:00 -5,3 C 85 % 1033,3 hPa 0,0 l/m O-NO 0,00 h 125 W/m 28,6 km/h (4 Bft)
18.01.2017 12:00 -4,7 C 83 % 1032,8 hPa 0,0 l/m O-NO 0,00 h 159 W/m 29,0 km/h (5 Bft)
18.01.2017 13:00 -4,3 C 81 % 1032,4 hPa 0,0 l/m NO 0,00 h 148 W/m 29,1 km/h (5 Bft)
18.01.2017 14:00 -4,2 C 80 % 1032,3 hPa 0,0 l/m O-NO 0,00 h 128 W/m 29,4 km/h (5 Bft)
18.01.2017 15:00 -4,3 C 81 % 1032,3 hPa 0,0 l/m O-NO 0,00 h 73 W/m 30,3 km/h (5 Bft)
18.01.2017 16:00 -4,4 C 82 % 1032,3 hPa 0,0 l/m O-NO 0,00 h 18 W/m 29,6 km/h (5 Bft)
18.01.2017 17:00 -4,7 C 82 % 1032,4 hPa 0,0 l/m O-NO 0,00 h 0 W/m 24,7 km/h (4 Bft)
18.01.2017 18:00 -4,9 C 82 % 1032,6 hPa 0,0 l/m O 0,00 h 0 W/m 23,0 km/h (4 Bft)
18.01.2017 19:00 -5,1 C 82 % 1032,7 hPa 0,0 l/m O 0,00 h 0 W/m 26,6 km/h (4 Bft)
18.01.2017 20:00 -5,2 C 83 % 1032,5 hPa 0,0 l/m O-NO 0,00 h 0 W/m 26,0 km/h (4 Bft)
18.01.2017 21:00 -5,3 C 84 % 1032,3 hPa 0,0 l/m O 0,00 h 0 W/m 24,5 km/h (4 Bft)
18.01.2017 22:00 -5,4 C 85 % 1032,3 hPa 0,0 l/m O 0,00 h 0 W/m 19,6 km/h (3 Bft)
18.01.2017 23:00 -5,5 C 86 % 1032,2 hPa 0,0 l/m O 0,00 h 0 W/m 25,6 km/h (4 Bft)
19.01.2017 00:00 -5,7 C 86 % 1031,9 hPa 0,0 l/m O 0,00 h 0 W/m 24,7 km/h (4 Bft)
19.01.2017 01:00 -5,8 C 87 % 1031,8 hPa 0,0 l/m O-NO 0,00 h 0 W/m 18,5 km/h (3 Bft)
19.01.2017 02:00 -5,8 C 87 % 1032,2 hPa 0,0 l/m O 0,00 h 0 W/m 22,4 km/h (4 Bft)
19.01.2017 03:00 -5,9 C 88 % 1032,4 hPa 0,0 l/m O-NO 0,00 h 0 W/m 22,4 km/h (4 Bft)
19.01.2017 04:00 -6,0 C 88 % 1032,5 hPa 0,0 l/m O 0,00 h 0 W/m 17,8 km/h (3 Bft)
19.01.2017 05:00 -6,1 C 89 % 1032,2 hPa 0,0 l/m O-NO 0,00 h 0 W/m 17,6 km/h (3 Bft)
19.01.2017 06:00 -6,2 C 89 % 1032,2 hPa 0,0 l/m O-NO 0,00 h 0 W/m 17,6 km/h (3 Bft)
19.01.2017 07:00 -6,3 C 90 % 1032,4 hPa 0,0 l/m O-NO 0,00 h 0 W/m 12,9 km/h (3 Bft)
19.01.2017 08:00 -6,5 C 90 % 1032,8 hPa 0,0 l/m O-NO 0,00 h 14 W/m 16,6 km/h (3 Bft)
19.01.2017 09:00 -6,5 C 90 % 1033,1 hPa 0,0 l/m O-NO 0,00 h 47 W/m 16,1 km/h (3 Bft)
19.01.2017 10:00 -6,5 C 90 % 1033,3 hPa 0,0 l/m O-NO 0,00 h 88 W/m 17,2 km/h (3 Bft)
19.01.2017 11:00 -6,3 C 90 % 1033,2 hPa 0,0 l/m O-NO 0,00 h 135 W/m 14,5 km/h (3 Bft)
19.01.2017 12:00 -6,2 C 90 % 1032,9 hPa 0,0 l/m O-NO 0,00 h 154 W/m 15,8 km/h (3 Bft)
19.01.2017 13:00 -5,8 C 89 % 1032,6 hPa 0,0 l/m O-NO 0,00 h 150 W/m 13,8 km/h (3 Bft)
19.01.2017 14:00 -5,7 C 88 % 1032,5 hPa 0,0 l/m O-NO 0,00 h 114 W/m 11,8 km/h (2 Bft)
19.01.2017 15:00 -5,7 C 89 % 1032,6 hPa 0,0 l/m O-NO 0,00 h 84 W/m 10,5 km/h (2 Bft)
19.01.2017 16:00 -6,1 C 88 % 1032,5 hPa 0,0 l/m O-NO 0,08 h 27 W/m 13,0 km/h (3 Bft)
19.01.2017 17:00 -7,0 C 88 % 1032,9 hPa 0,0 l/m O 0,00 h 5 W/m 2,9 km/h (1 Bft)
19.01.2017 18:00 -8,0 C 88 % 1033,1 hPa 0,0 l/m N 0,00 h 0 W/m 0,0 km/h (0 Bft)
19.01.2017 19:00 -9,1 C 88 % 1033,2 hPa 0,0 l/m N 0,00 h 0 W/m 0,0 km/h (0 Bft)
19.01.2017 20:00 -9,9 C 89 % 1033,2 hPa 0,0 l/m N 0,00 h 0 W/m 0,8 km/h (0 Bft)
19.01.2017 21:00 -10,1 C 91 % 1033,1 hPa 0,0 l/m O 0,00 h 0 W/m 3,9 km/h (1 Bft)
19.01.2017 22:00 -10,0 C 91 % 1033,2 hPa 0,0 l/m N 0,00 h 0 W/m 0,0 km/h (0 Bft)
19.01.2017 23:00 -10,3 C 92 % 1033,1 hPa 0,0 l/m N 0,00 h 0 W/m 0,1 km/h (0 Bft)
20.01.2017 00:00 -10,4 C 92 % 1032,8 hPa 0,0 l/m O-NO 0,00 h 0 W/m 0,7 km/h (0 Bft)
20.01.2017 01:00 -10,6 C 92 % 1032,6 hPa 0,0 l/m O-NO 0,00 h 0 W/m 4,3 km/h (1 Bft)
20.01.2017 02:00 -10,4 C 93 % 1032,7 hPa 0,0 l/m O-NO 0,00 h 0 W/m 1,6 km/h (1 Bft)
20.01.2017 03:00 -10,5 C 93 % 1032,9 hPa 0,0 l/m O-NO 0,00 h 0 W/m 1,7 km/h (1 Bft)
20.01.2017 04:00 -9,9 C 93 % 1032,6 hPa 0,0 l/m O-NO 0,00 h 0 W/m 3,8 km/h (1 Bft)
20.01.2017 05:00 -9,2 C 94 % 1032,5 hPa 0,0 l/m O-NO 0,00 h 0 W/m 5,2 km/h (1 Bft)
20.01.2017 06:00 -9,1 C 94 % 1032,7 hPa 0,0 l/m O-NO 0,00 h 0 W/m 5,9 km/h (2 Bft)
20.01.2017 07:00 -9,2 C 93 % 1033,0 hPa 0,0 l/m O-NO 0,00 h 0 W/m 5,1 km/h (1 Bft)
20.01.2017 08:00 -9,4 C 94 % 1033,3 hPa 0,0 l/m O-NO 0,00 h 15 W/m 2,5 km/h (1 Bft)
20.01.2017 09:00 -9,3 C 94 % 1033,6 hPa 0,0 l/m O-NO 0,00 h 51 W/m 3,6 km/h (1 Bft)
20.01.2017 10:00 -9,2 C 94 % 1034,0 hPa 0,0 l/m O-NO 0,00 h 89 W/m 2,4 km/h (1 Bft)
20.01.2017 11:00 -8,8 C 94 % 1034,1 hPa 0,0 l/m O-NO 0,00 h 114 W/m 3,5 km/h (1 Bft)
20.01.2017 12:00 -8,6 C 94 % 1033,8 hPa 0,0 l/m O-NO 0,00 h 139 W/m 2,3 km/h (1 Bft)
20.01.2017 13:00 -8,2 C 93 % 1033,1 hPa 0,0 l/m O-NO 0,00 h 136 W/m 3,7 km/h (1 Bft)
20.01.2017 14:00 -8,2 C 93 % 1032,7 hPa 0,0 l/m O-NO 0,00 h 105 W/m 4,0 km/h (1 Bft)
20.01.2017 15:00 -8,0 C 93 % 1032,6 hPa 0,0 l/m O-NO 0,00 h 63 W/m 3,2 km/h (1 Bft)
20.01.2017 16:00 -8,0 C 93 % 1032,6 hPa 0,0 l/m O-NO 0,00 h 19 W/m 4,8 km/h (1 Bft)
20.01.2017 17:00 -8,3 C 93 % 1032,7 hPa 0,0 l/m O-NO 0,00 h 0 W/m 2,7 km/h (1 Bft)
20.01.2017 18:00 -8,4 C 94 % 1032,8 hPa 0,0 l/m N 0,00 h 0 W/m 0,3 km/h (0 Bft)
20.01.2017 19:00 -8,6 C 94 % 1032,9 hPa 0,0 l/m O-NO 0,00 h 0 W/m 0,4 km/h (0 Bft)
20.01.2017 20:00 -8,8 C 94 % 1033,1 hPa 0,0 l/m N 0,00 h 0 W/m 0,9 km/h (0 Bft)
20.01.2017 21:00 -8,8 C 94 % 1032,9 hPa 0,0 l/m N 0,00 h 0 W/m 0,3 km/h (0 Bft)
20.01.2017 22:00 -9,1 C 94 % 1033,0 hPa 0,0 l/m N 0,00 h 0 W/m 0,0 km/h (0 Bft)
20.01.2017 23:00 -9,3 C 94 % 1032,8 hPa 0,0 l/m N 0,00 h 0 W/m 2,0 km/h (1 Bft)
21.01.2017 00:00 -9,6 C 94 % 1032,7 hPa 0,0 l/m O-NO 0,00 h 0 W/m 1,5 km/h (1 Bft)
21.01.2017 01:00 -9,9 C 94 % 1032,3 hPa 0,0 l/m N 0,00 h 0 W/m 2,8 km/h (1 Bft)
21.01.2017 02:00 -10,1 C 94 % 1032,1 hPa 0,0 l/m N 0,00 h 0 W/m 0,0 km/h (0 Bft)
21.01.2017 03:00 -10,1 C 94 % 1031,9 hPa 0,0 l/m N 0,00 h 0 W/m 0,0 km/h (0 Bft)
21.01.2017 04:00 -10,1 C 94 % 1031,7 hPa 0,0 l/m O-NO 0,00 h 0 W/m 1,1 km/h (0 Bft)
21.01.2017 05:00 -10,3 C 94 % 1031,6 hPa 0,0 l/m N 0,00 h 0 W/m 0,5 km/h (0 Bft)
21.01.2017 06:00 -10,4 C 94 % 1031,5 hPa 0,0 l/m N 0,00 h 0 W/m 0,7 km/h (0 Bft)
21.01.2017 07:00 -10,4 C 94 % 1031,8 hPa 0,0 l/m O-NO 0,00 h 0 W/m 2,0 km/h (1 Bft)
21.01.2017 08:00 -10,4 C 94 % 1031,9 hPa 0,0 l/m O-NO 0,00 h 17 W/m 4,4 km/h (1 Bft)
21.01.2017 09:00 -10,3 C 94 % 1032,3 hPa 0,0 l/m O-NO 0,00 h 64 W/m 3,2 km/h (1 Bft)
21.01.2017 10:00 -9,5 C 94 % 1032,5 hPa 0,0 l/m N 0,00 h 122 W/m 0,0 km/h (0 Bft)
21.01.2017 11:00 -8,7 C 95 % 1032,2 hPa 0,0 l/m N 0,17 h 183 W/m 0,4 km/h (0 Bft)
21.01.2017 12:00 -7,7 C 95 % 1031,3 hPa 0,0 l/m N 1,00 h 293 W/m 0,5 km/h (0 Bft)
21.01.2017 13:00 -6,5 C 93 % 1030,5 hPa 0,0 l/m N 1,00 h 322 W/m 0,0 km/h (0 Bft)
21.01.2017 14:00 -5,9 C 90 % 1029,9 hPa 0,0 l/m O-NO 1,00 h 232 W/m 0,8 km/h (0 Bft)
21.01.2017 15:00 -6,2 C 91 % 1029,6 hPa 0,0 l/m O-NO 0,67 h 127 W/m 1,7 km/h (1 Bft)
21.01.2017 16:00 -6,7 C 93 % 1029,5 hPa 0,0 l/m N 0,08 h 32 W/m 0,0 km/h (0 Bft)
21.01.2017 17:00 -7,0 C 93 % 1029,6 hPa 0,0 l/m O-NO 0,00 h 5 W/m 3,2 km/h (1 Bft)
21.01.2017 18:00 -7,7 C 93 % 1029,8 hPa 0,0 l/m O-NO 0,00 h 0 W/m 3,6 km/h (1 Bft)
21.01.2017 19:00 -8,5 C 93 % 1030,0 hPa 0,0 l/m N 0,00 h 0 W/m 0,5 km/h (0 Bft)
21.01.2017 20:00 -8,9 C 93 % 1029,9 hPa 0,0 l/m O-NO 0,00 h 0 W/m 3,9 km/h (1 Bft)
21.01.2017 21:00 -9,3 C 94 % 1029,7 hPa 0,0 l/m O-NO 0,00 h 0 W/m 4,0 km/h (1 Bft)
21.01.2017 22:00 -9,8 C 94 % 1029,6 hPa 0,0 l/m O-NO 0,00 h 0 W/m 4,4 km/h (1 Bft)
21.01.2017 23:00 -10,2 C 94 % 1029,6 hPa 0,0 l/m O-NO 0,00 h 0 W/m 0,8 km/h (0 Bft)
22.01.2017 00:00 -10,8 C 93 % 1029,3 hPa 0,0 l/m N 0,00 h 0 W/m 0,7 km/h (0 Bft)
22.01.2017 01:00 -11,0 C 93 % 1028,9 hPa 0,0 l/m N 0,00 h 0 W/m 0,1 km/h (0 Bft)
22.01.2017 02:00 -11,9 C 93 % 1028,7 hPa 0,0 l/m N 0,00 h 0 W/m 0,0 km/h (0 Bft)
22.01.2017 03:00 -12,8 C 93 % 1028,4 hPa 0,0 l/m N 0,00 h 0 W/m 0,0 km/h (0 Bft)
22.01.2017 04:00 -13,6 C 92 % 1028,0 hPa 0,0 l/m N 0,00 h 0 W/m 0,0 km/h (0 Bft)
22.01.2017 05:00 -14,0 C 92 % 1028,1 hPa 0,0 l/m N 0,00 h 0 W/m 0,0 km/h (0 Bft)
22.01.2017 06:00 -13,8 C 92 % 1027,9 hPa 0,0 l/m N 0,00 h 0 W/m 0,1 km/h (0 Bft)
22.01.2017 07:00 -12,5 C 93 % 1027,9 hPa 0,0 l/m N 0,00 h 0 W/m 1,3 km/h (1 Bft)
22.01.2017 08:00 -12,3 C 93 % 1028,0 hPa 0,0 l/m O-NO 0,00 h 18 W/m 1,3 km/h (1 Bft)
22.01.2017 09:00 -12,0 C 94 % 1028,3 hPa 0,0 l/m N 0,00 h 67 W/m 0,0 km/h (0 Bft)
22.01.2017 10:00 -11,5 C 94 % 1028,2 hPa 0,0 l/m N 0,08 h 148 W/m 0,1 km/h (0 Bft)
22.01.2017 11:00 -10,5 C 94 % 1027,7 hPa 0,0 l/m N 0,92 h 261 W/m 0,0 km/h (0 Bft)
22.01.2017 12:00 -8,7 C 94 % 1026,7 hPa 0,0 l/m O-NO 1,00 h 309 W/m 0,4 km/h (0 Bft)
22.01.2017 13:00 -6,6 C 90 % 1025,9 hPa 0,0 l/m O-NO 1,00 h 321 W/m 2,7 km/h (1 Bft)
22.01.2017 14:00 -5,4 C 87 % 1025,4 hPa 0,0 l/m O-NO 1,00 h 237 W/m 2,7 km/h (1 Bft)
22.01.2017 15:00 -5,5 C 87 % 1025,2 hPa 0,0 l/m O-NO 0,50 h 115 W/m 1,1 km/h (0 Bft)
22.01.2017 16:00 -5,9 C 89 % 1025,1 hPa 0,0 l/m N 0,00 h 29 W/m 0,0 km/h (0 Bft)
22.01.2017 17:00 -7,4 C 90 % 1025,2 hPa 0,0 l/m N 0,00 h 5 W/m 0,0 km/h (0 Bft)
22.01.2017 18:00 -8,6 C 89 % 1025,6 hPa 0,0 l/m N 0,00 h 0 W/m 0,0 km/h (0 Bft)
22.01.2017 19:00 -9,9 C 89 % 1025,9 hPa 0,0 l/m N 0,00 h 0 W/m 0,0 km/h (0 Bft)
22.01.2017 20:00 -11,0 C 89 % 1026,0 hPa 0,0 l/m N 0,00 h 0 W/m 0,4 km/h (0 Bft)
22.01.2017 21:00 -11,8 C 90 % 1026,2 hPa 0,0 l/m N 0,00 h 0 W/m 0,0 km/h (0 Bft)
22.01.2017 22:00 -11,1 C 92 % 1026,3 hPa 0,0 l/m SW 0,00 h 0 W/m 2,4 km/h (1 Bft)
22.01.2017 23:00 -9,4 C 94 % 1026,6 hPa 0,0 l/m W-SW 0,00 h 0 W/m 6,5 km/h (2 Bft)
Min-Datum _ 22.01.17 18.01.17 16.01.17 - - - - 16.01.17
_ Min-Zeit 05:25 14:10 04:25 - - - - 00:00
Minimum _ -14,1 C 80 % 1020,9 hPa - - - - 0,0 km/h (0 Bft)
Max-Datum _ 16.01.17 19.01.17 20.01.17 16.01.17 - 16.01.17 21.01.17 18.01.17
_ Max-Zeit 12:25 21:50 10:50 07:15 - 14:15 12:15 02:45
Maximum _ -2,2 C 100 % 1034,3 hPa 0,6 l/m - 0,08 h 422 W/m 40,2 km/h
O-NO (6 Bft)
Durchschnitt _ -7,4 C 91 % 1029,8 hPa #1,6 l/m O-NO #10:50 h 105 W/m 9,9 km/h (2 Bft)